TRINITY LAKE (CLE)

Elevation: 2370' · TRINITY R basin · Operator: US Bureau of Reclamation

Provisional data, subject to change.
Query executed Thursday at 17:05:52   clock

Select a sensor type for a plot of data.
Note: Reservoir Flows are daily averages.

Earlier

Date RES ELE    STORAGE    RES CHG    OUTFLOW    INFLOW    EVAP    FNF    RIV REL    PPT INC    SPILL    DIS PWR   
 FEET   AF   AF   CFS   CFS   CFS   CFS   CFS   INCHES   CFS   CFS  
04/29/2015 2274.86 1186829 -1508 1676 987 71 987 0 0.00 0 1676
04/30/2015 2274.57 1183915 -2914 2192 761 38 761 0 0.00 0 2192
05/01/2015 2274.26 1180799 -3116 2309 776 38 776 0 0.00 0 2309
05/02/2015 2273.83 1176488 -4311 2935 836 74 836 593 0.00 0 2342
05/03/2015 2273.25 1170697 -- 3711 876 85 876 1501 0.00 0 2210
05/04/2015 2272.16 1159865 -10832 5992 604 73 604 4103 0.00 0 1889
05/05/2015 2270.74 1145871 -- 7806 835 84 835 6522 0.00 0 1284
05/06/2015 2269.27 1131518 -14353 7897 744 83 744 6508 0.00 0 1389
05/07/2015 2267.94 1118641 -12877 7032 611 71 611 5694 0.00 0 1338
05/08/2015 2267.08 1110376 -8265 4971 883 79 883 3468 0.00 0 1503
05/09/2015 2266.54 1105214 -5162 3209 686 79 686 1712 0.00 0 1497
05/10/2015 2265.97 1099772 -5442 3183 512 73 512 1712 0.00 0 1471
05/11/2015 2265.44 1094743 -5029 2947 487 75 487 1510 0.00 0 1437
05/12/2015 2264.94 1090001 -4742 2942 618 67 618 1093 0.00 0 1849
05/13/2015 2264.51 1085947 -4054 2491 500 53 500 461 0.00 0 2030
05/14/2015 2264.19 1082930 -3017 2074 583 30 583 0 0.03 0 2074
05/15/2015 2263.82 1079452 -3478 2194 496 55 496 e 190 0.00 0 2004
05/16/2015 2263.44 1075891 -3561 2376 614 33 614 e 499 0.09 0 1877
05/17/2015 2263.08 1072519 -3372 2211 555 44 555 499 0.02 0 1712
05/18/2015 2262.65 1068511 -4008 2620 640 41 640 499 0.04 0 2121
05/19/2015 2262.28 1065067 -3444 2398 706 44 706 499 0.06 0 1899
05/20/2015 2261.96 1062090 -2977 2354 888 35 888 498 0.03 0 1856
05/21/2015 2261.55 1058298 -3792 2556 685 41 685 712 0.23 0 1844
05/22/2015 2261.10 1054136 -4162 2714 657 41 657 911 0.00 0 1803
05/23/2015 2260.67 1050178 -3958 2632 664 27 664 911 0.00 0 1721
05/24/2015 2260.28 1046594 -3584 2386 652 73 652 910 0.00 0 1476
05/25/2015 2259.90 1043108 -3486 2361 669 65 669 910 0.00 0 1451
05/26/2015 2259.51 1039546 -3562 2300 582 78 582 667 0.00 0 1633
05/27/2015 2259.11 1035893 -3653 2304 540 78 540 515 0.00 0 1789
05/28/2015 -- -- -- -- -- -- -- -- -- -- --

Later | Latest

Warning! This data is preliminary and subject to revision.

Show CLE Map | Plot CLE Data | 1 Month CLE Data | Real-Time CLE Data | CLE Info